sensor_id;sensor_type;location;lat;lon;timestamp;P1;durP1;ratioP1;P2;durP2;ratioP2
83807;SDS011;73824;40.292;17.998;2024-02-26T00:00:28;14.30;;;2.30;;
83807;SDS011;73824;40.292;17.998;2024-02-26T00:02:54;11.73;;;2.20;;
83807;SDS011;73824;40.292;17.998;2024-02-26T00:05:20;10.83;;;2.40;;
83807;SDS011;73824;40.292;17.998;2024-02-26T00:07:45;13.18;;;2.40;;
83807;SDS011;73824;40.292;17.998;2024-02-26T00:10:12;10.27;;;1.60;;
83807;SDS011;73824;40.292;17.998;2024-02-26T00:12:38;9.40;;;1.63;;
83807;SDS011;73824;40.292;17.998;2024-02-26T00:15:04;10.00;;;1.90;;
83807;SDS011;73824;40.292;17.998;2024-02-26T00:17:31;8.70;;;1.73;;
83807;SDS011;73824;40.292;17.998;2024-02-26T00:19:56;9.30;;;1.87;;
83807;SDS011;73824;40.292;17.998;2024-02-26T00:22:22;9.53;;;1.53;;
83807;SDS011;73824;40.292;17.998;2024-02-26T00:24:47;10.80;;;1.80;;
83807;SDS011;73824;40.292;17.998;2024-02-26T00:27:13;8.00;;;1.27;;
83807;SDS011;73824;40.292;17.998;2024-02-26T00:29:38;8.32;;;1.50;;
83807;SDS011;73824;40.292;17.998;2024-02-26T00:32:04;9.48;;;1.70;;
83807;SDS011;73824;40.292;17.998;2024-02-26T00:34:30;10.35;;;1.60;;
83807;SDS011;73824;40.292;17.998;2024-02-26T00:36:56;13.67;;;1.70;;
83807;SDS011;73824;40.292;17.998;2024-02-26T00:39:21;11.03;;;1.50;;
83807;SDS011;73824;40.292;17.998;2024-02-26T00:41:47;6.38;;;1.38;;
83807;SDS011;73824;40.292;17.998;2024-02-26T00:44:12;10.87;;;1.47;;
83807;SDS011;73824;40.292;17.998;2024-02-26T00:46:38;10.37;;;1.50;;
83807;SDS011;73824;40.292;17.998;2024-02-26T00:49:03;7.55;;;1.17;;
83807;SDS011;73824;40.292;17.998;2024-02-26T00:51:29;9.90;;;1.17;;
83807;SDS011;73824;40.292;17.998;2024-02-26T00:53:54;8.50;;;1.07;;
83807;SDS011;73824;40.292;17.998;2024-02-26T00:56:21;12.18;;;1.30;;
83807;SDS011;73824;40.292;17.998;2024-02-26T00:58:46;10.52;;;0.90;;
83807;SDS011;73824;40.292;17.998;2024-02-26T01:01:12;5.53;;;0.80;;
83807;SDS011;73824;40.292;17.998;2024-02-26T01:03:37;8.97;;;0.97;;
83807;SDS011;73824;40.292;17.998;2024-02-26T01:06:03;6.23;;;0.87;;
83807;SDS011;73824;40.292;17.998;2024-02-26T01:08:28;9.30;;;1.20;;
83807;SDS011;73824;40.292;17.998;2024-02-26T01:10:54;5.00;;;1.20;;
83807;SDS011;73824;40.292;17.998;2024-02-26T01:13:19;6.30;;;0.97;;
83807;SDS011;73824;40.292;17.998;2024-02-26T01:15:45;10.82;;;0.95;;
83807;SDS011;73824;40.292;17.998;2024-02-26T01:18:11;9.67;;;0.90;;
83807;SDS011;73824;40.292;17.998;2024-02-26T01:20:37;8.00;;;1.25;;
83807;SDS011;73824;40.292;17.998;2024-02-26T01:23:02;5.90;;;1.10;;
83807;SDS011;73824;40.292;17.998;2024-02-26T01:25:28;7.15;;;1.20;;
83807;SDS011;73824;40.292;17.998;2024-02-26T01:27:53;9.37;;;1.10;;
83807;SDS011;73824;40.292;17.998;2024-02-26T01:30:19;6.70;;;1.00;;
83807;SDS011;73824;40.292;17.998;2024-02-26T01:32:45;5.43;;;1.02;;
83807;SDS011;73824;40.292;17.998;2024-02-26T01:35:11;8.97;;;1.50;;
83807;SDS011;73824;40.292;17.998;2024-02-26T01:37:37;10.63;;;1.33;;
83807;SDS011;73824;40.292;17.998;2024-02-26T01:40:03;8.27;;;1.40;;
83807;SDS011;73824;40.292;17.998;2024-02-26T01:42:32;10.30;;;1.42;;
83807;SDS011;73824;40.292;17.998;2024-02-26T01:44:58;7.33;;;1.60;;
83807;SDS011;73824;40.292;17.998;2024-02-26T01:47:24;7.97;;;1.58;;
83807;SDS011;73824;40.292;17.998;2024-02-26T01:49:52;9.05;;;1.65;;
83807;SDS011;73824;40.292;17.998;2024-02-26T01:52:21;8.68;;;1.60;;
83807;SDS011;73824;40.292;17.998;2024-02-26T01:54:47;9.13;;;1.67;;
83807;SDS011;73824;40.292;17.998;2024-02-26T01:57:13;7.93;;;1.70;;
83807;SDS011;73824;40.292;17.998;2024-02-26T01:59:39;8.52;;;1.35;;
83807;SDS011;73824;40.292;17.998;2024-02-26T02:02:07;11.15;;;1.80;;
83807;SDS011;73824;40.292;17.998;2024-02-26T02:04:35;6.80;;;1.63;;
83807;SDS011;73824;40.292;17.998;2024-02-26T02:07:01;7.23;;;1.67;;
83807;SDS011;73824;40.292;17.998;2024-02-26T02:09:28;6.78;;;1.70;;
83807;SDS011;73824;40.292;17.998;2024-02-26T02:11:56;10.20;;;2.20;;
83807;SDS011;73824;40.292;17.998;2024-02-26T02:14:23;11.50;;;2.00;;
83807;SDS011;73824;40.292;17.998;2024-02-26T02:16:50;8.37;;;2.10;;
83807;SDS011;73824;40.292;17.998;2024-02-26T02:19:15;8.30;;;2.15;;
83807;SDS011;73824;40.292;17.998;2024-02-26T02:21:41;8.10;;;2.30;;
83807;SDS011;73824;40.292;17.998;2024-02-26T02:24:06;7.97;;;2.37;;
83807;SDS011;73824;40.292;17.998;2024-02-26T02:26:32;8.40;;;2.72;;
83807;SDS011;73824;40.292;17.998;2024-02-26T02:28:57;9.80;;;2.10;;
83807;SDS011;73824;40.292;17.998;2024-02-26T02:31:24;8.02;;;2.13;;
83807;SDS011;73824;40.292;17.998;2024-02-26T02:33:49;8.77;;;1.93;;
83807;SDS011;73824;40.292;17.998;2024-02-26T02:36:15;7.57;;;2.08;;
83807;SDS011;73824;40.292;17.998;2024-02-26T02:38:50;7.27;;;2.00;;
83807;SDS011;73824;40.292;17.998;2024-02-26T02:41:16;9.52;;;2.33;;
83807;SDS011;73824;40.292;17.998;2024-02-26T02:43:42;9.27;;;2.38;;
83807;SDS011;73824;40.292;17.998;2024-02-26T02:46:08;10.95;;;1.95;;
83807;SDS011;73824;40.292;17.998;2024-02-26T02:48:33;9.83;;;3.10;;
83807;SDS011;73824;40.292;17.998;2024-02-26T02:50:59;7.97;;;2.20;;
83807;SDS011;73824;40.292;17.998;2024-02-26T02:53:24;8.73;;;2.30;;
83807;SDS011;73824;40.292;17.998;2024-02-26T02:55:50;8.50;;;2.47;;
83807;SDS011;73824;40.292;17.998;2024-02-26T02:58:15;6.73;;;2.13;;
83807;SDS011;73824;40.292;17.998;2024-02-26T03:00:41;8.68;;;2.50;;
83807;SDS011;73824;40.292;17.998;2024-02-26T03:03:06;8.83;;;2.60;;
83807;SDS011;73824;40.292;17.998;2024-02-26T03:05:32;7.90;;;1.80;;
83807;SDS011;73824;40.292;17.998;2024-02-26T03:07:57;10.45;;;2.00;;
83807;SDS011;73824;40.292;17.998;2024-02-26T03:10:23;9.03;;;2.53;;
83807;SDS011;73824;40.292;17.998;2024-02-26T03:12:49;11.47;;;2.47;;
83807;SDS011;73824;40.292;17.998;2024-02-26T03:15:15;8.10;;;2.65;;
83807;SDS011;73824;40.292;17.998;2024-02-26T03:17:40;8.57;;;2.63;;
83807;SDS011;73824;40.292;17.998;2024-02-26T03:20:06;7.82;;;2.42;;
83807;SDS011;73824;40.292;17.998;2024-02-26T03:22:34;8.35;;;2.58;;
83807;SDS011;73824;40.292;17.998;2024-02-26T03:25:00;7.30;;;2.53;;
83807;SDS011;73824;40.292;17.998;2024-02-26T03:27:25;8.55;;;2.40;;
83807;SDS011;73824;40.292;17.998;2024-02-26T03:29:51;9.63;;;2.50;;
83807;SDS011;73824;40.292;17.998;2024-02-26T03:32:17;9.50;;;2.92;;
83807;SDS011;73824;40.292;17.998;2024-02-26T03:34:43;10.23;;;3.00;;
83807;SDS011;73824;40.292;17.998;2024-02-26T03:37:08;9.90;;;2.67;;
83807;SDS011;73824;40.292;17.998;2024-02-26T03:39:37;13.70;;;3.08;;
83807;SDS011;73824;40.292;17.998;2024-02-26T03:42:02;10.23;;;2.63;;
83807;SDS011;73824;40.292;17.998;2024-02-26T03:44:28;7.60;;;2.60;;
83807;SDS011;73824;40.292;17.998;2024-02-26T03:46:54;10.98;;;3.05;;
83807;SDS011;73824;40.292;17.998;2024-02-26T03:49:20;10.43;;;2.63;;
83807;SDS011;73824;40.292;17.998;2024-02-26T03:51:46;9.50;;;2.60;;
83807;SDS011;73824;40.292;17.998;2024-02-26T03:54:12;8.73;;;2.43;;
83807;SDS011;73824;40.292;17.998;2024-02-26T03:56:37;9.73;;;2.22;;
83807;SDS011;73824;40.292;17.998;2024-02-26T03:59:03;9.53;;;2.97;;
83807;SDS011;73824;40.292;17.998;2024-02-26T04:01:28;8.97;;;2.50;;
83807;SDS011;73824;40.292;17.998;2024-02-26T04:03:54;10.27;;;2.40;;
83807;SDS011;73824;40.292;17.998;2024-02-26T04:06:20;9.95;;;2.85;;
83807;SDS011;73824;40.292;17.998;2024-02-26T04:08:48;9.88;;;2.42;;
83807;SDS011;73824;40.292;17.998;2024-02-26T04:11:14;9.35;;;2.75;;
83807;SDS011;73824;40.292;17.998;2024-02-26T04:13:43;9.07;;;3.23;;
83807;SDS011;73824;40.292;17.998;2024-02-26T04:16:11;10.73;;;2.85;;
83807;SDS011;73824;40.292;17.998;2024-02-26T04:18:37;11.15;;;3.42;;
83807;SDS011;73824;40.292;17.998;2024-02-26T04:21:03;10.87;;;3.03;;
83807;SDS011;73824;40.292;17.998;2024-02-26T04:23:31;10.73;;;3.20;;
83807;SDS011;73824;40.292;17.998;2024-02-26T04:25:56;11.32;;;3.05;;
83807;SDS011;73824;40.292;17.998;2024-02-26T04:28:21;9.40;;;3.10;;
83807;SDS011;73824;40.292;17.998;2024-02-26T04:30:50;8.53;;;2.87;;
83807;SDS011;73824;40.292;17.998;2024-02-26T04:33:16;9.38;;;2.85;;
83807;SDS011;73824;40.292;17.998;2024-02-26T04:35:41;10.37;;;3.30;;
83807;SDS011;73824;40.292;17.998;2024-02-26T04:38:07;11.98;;;2.85;;
83807;SDS011;73824;40.292;17.998;2024-02-26T04:40:33;13.23;;;3.40;;
83807;SDS011;73824;40.292;17.998;2024-02-26T04:42:58;11.95;;;3.28;;
83807;SDS011;73824;40.292;17.998;2024-02-26T04:45:24;10.57;;;3.00;;
83807;SDS011;73824;40.292;17.998;2024-02-26T04:47:49;10.77;;;3.47;;
83807;SDS011;73824;40.292;17.998;2024-02-26T04:50:15;10.60;;;2.90;;
83807;SDS011;73824;40.292;17.998;2024-02-26T04:52:41;10.93;;;3.17;;
83807;SDS011;73824;40.292;17.998;2024-02-26T04:55:07;10.53;;;3.17;;
83807;SDS011;73824;40.292;17.998;2024-02-26T04:57:33;10.43;;;3.45;;
83807;SDS011;73824;40.292;17.998;2024-02-26T04:59:58;10.90;;;3.37;;
83807;SDS011;73824;40.292;17.998;2024-02-26T05:02:24;10.33;;;3.30;;
83807;SDS011;73824;40.292;17.998;2024-02-26T05:04:49;9.45;;;3.00;;
83807;SDS011;73824;40.292;17.998;2024-02-26T05:07:15;10.07;;;2.77;;
83807;SDS011;73824;40.292;17.998;2024-02-26T05:09:42;8.65;;;3.03;;
83807;SDS011;73824;40.292;17.998;2024-02-26T05:12:08;14.07;;;4.00;;
83807;SDS011;73824;40.292;17.998;2024-02-26T05:14:34;10.55;;;3.50;;
83807;SDS011;73824;40.292;17.998;2024-02-26T05:17:00;13.33;;;3.77;;
83807;SDS011;73824;40.292;17.998;2024-02-26T05:19:25;13.00;;;3.80;;
83807;SDS011;73824;40.292;17.998;2024-02-26T05:21:51;11.48;;;3.33;;
83807;SDS011;73824;40.292;17.998;2024-02-26T05:24:16;13.38;;;3.38;;
83807;SDS011;73824;40.292;17.998;2024-02-26T05:26:43;12.10;;;3.17;;
83807;SDS011;73824;40.292;17.998;2024-02-26T05:29:11;9.95;;;3.40;;
83807;SDS011;73824;40.292;17.998;2024-02-26T05:31:36;10.93;;;3.73;;
83807;SDS011;73824;40.292;17.998;2024-02-26T05:34:02;12.90;;;3.53;;
83807;SDS011;73824;40.292;17.998;2024-02-26T05:36:27;11.93;;;3.47;;
83807;SDS011;73824;40.292;17.998;2024-02-26T05:38:58;8.70;;;2.92;;
83807;SDS011;73824;40.292;17.998;2024-02-26T05:41:24;11.55;;;3.47;;
83807;SDS011;73824;40.292;17.998;2024-02-26T05:43:51;15.07;;;3.13;;
83807;SDS011;73824;40.292;17.998;2024-02-26T05:46:18;11.05;;;3.42;;
83807;SDS011;73824;40.292;17.998;2024-02-26T05:48:44;11.07;;;3.35;;
83807;SDS011;73824;40.292;17.998;2024-02-26T05:51:12;13.98;;;4.15;;
83807;SDS011;73824;40.292;17.998;2024-02-26T05:53:37;12.57;;;4.03;;
83807;SDS011;73824;40.292;17.998;2024-02-26T05:56:03;15.23;;;5.60;;
83807;SDS011;73824;40.292;17.998;2024-02-26T05:58:28;13.43;;;4.18;;
83807;SDS011;73824;40.292;17.998;2024-02-26T06:00:54;13.33;;;4.20;;
83807;SDS011;73824;40.292;17.998;2024-02-26T06:03:20;11.05;;;3.58;;
83807;SDS011;73824;40.292;17.998;2024-02-26T06:05:46;12.70;;;3.50;;
83807;SDS011;73824;40.292;17.998;2024-02-26T06:08:11;11.43;;;3.40;;
83807;SDS011;73824;40.292;17.998;2024-02-26T06:10:37;12.33;;;3.97;;
83807;SDS011;73824;40.292;17.998;2024-02-26T06:13:04;11.55;;;3.58;;
83807;SDS011;73824;40.292;17.998;2024-02-26T06:15:29;13.63;;;4.50;;
83807;SDS011;73824;40.292;17.998;2024-02-26T06:17:55;13.43;;;6.80;;
83807;SDS011;73824;40.292;17.998;2024-02-26T06:20:20;10.20;;;3.47;;
83807;SDS011;73824;40.292;17.998;2024-02-26T06:22:46;10.03;;;4.10;;
83807;SDS011;73824;40.292;17.998;2024-02-26T06:25:11;10.23;;;3.50;;
83807;SDS011;73824;40.292;17.998;2024-02-26T06:27:37;12.48;;;3.60;;
83807;SDS011;73824;40.292;17.998;2024-02-26T06:30:02;12.07;;;4.20;;
83807;SDS011;73824;40.292;17.998;2024-02-26T06:32:28;12.23;;;4.95;;
83807;SDS011;73824;40.292;17.998;2024-02-26T06:34:54;9.93;;;3.80;;
83807;SDS011;73824;40.292;17.998;2024-02-26T06:37:20;11.52;;;3.50;;
83807;SDS011;73824;40.292;17.998;2024-02-26T06:39:46;12.30;;;4.10;;
83807;SDS011;73824;40.292;17.998;2024-02-26T06:42:11;10.88;;;3.22;;
83807;SDS011;73824;40.292;17.998;2024-02-26T06:44:37;8.70;;;2.67;;
83807;SDS011;73824;40.292;17.998;2024-02-26T06:47:02;8.60;;;2.83;;
83807;SDS011;73824;40.292;17.998;2024-02-26T06:49:29;9.85;;;2.90;;
83807;SDS011;73824;40.292;17.998;2024-02-26T06:51:55;8.50;;;2.45;;
83807;SDS011;73824;40.292;17.998;2024-02-26T06:54:20;9.13;;;2.20;;
83807;SDS011;73824;40.292;17.998;2024-02-26T06:56:48;8.98;;;2.00;;
83807;SDS011;73824;40.292;17.998;2024-02-26T06:59:14;10.77;;;3.78;;
83807;SDS011;73824;40.292;17.998;2024-02-26T07:01:41;8.30;;;1.80;;
83807;SDS011;73824;40.292;17.998;2024-02-26T07:04:06;11.98;;;1.92;;
83807;SDS011;73824;40.292;17.998;2024-02-26T07:06:32;7.37;;;1.47;;
83807;SDS011;73824;40.292;17.998;2024-02-26T07:08:58;7.53;;;2.30;;
83807;SDS011;73824;40.292;17.998;2024-02-26T07:11:23;6.28;;;1.65;;
83807;SDS011;73824;40.292;17.998;2024-02-26T07:13:48;5.63;;;1.30;;
83807;SDS011;73824;40.292;17.998;2024-02-26T07:16:14;8.23;;;1.55;;
83807;SDS011;73824;40.292;17.998;2024-02-26T07:18:40;5.93;;;1.50;;
83807;SDS011;73824;40.292;17.998;2024-02-26T07:21:06;7.60;;;1.60;;
83807;SDS011;73824;40.292;17.998;2024-02-26T07:23:32;6.53;;;1.77;;
83807;SDS011;73824;40.292;17.998;2024-02-26T07:25:57;7.75;;;1.80;;
83807;SDS011;73824;40.292;17.998;2024-02-26T07:28:24;8.27;;;1.57;;
83807;SDS011;73824;40.292;17.998;2024-02-26T07:30:50;10.63;;;1.38;;
83807;SDS011;73824;40.292;17.998;2024-02-26T07:33:16;7.43;;;1.23;;
83807;SDS011;73824;40.292;17.998;2024-02-26T07:35:41;11.50;;;1.90;;
83807;SDS011;73824;40.292;17.998;2024-02-26T07:38:07;9.23;;;1.30;;
83807;SDS011;73824;40.292;17.998;2024-02-26T07:40:32;5.95;;;0.98;;
83807;SDS011;73824;40.292;17.998;2024-02-26T07:42:58;6.65;;;1.45;;
83807;SDS011;73824;40.292;17.998;2024-02-26T07:45:23;9.90;;;1.20;;
83807;SDS011;73824;40.292;17.998;2024-02-26T07:47:49;10.20;;;4.07;;
83807;SDS011;73824;40.292;17.998;2024-02-26T07:50:16;8.23;;;1.50;;
83807;SDS011;73824;40.292;17.998;2024-02-26T07:52:42;8.60;;;1.10;;
83807;SDS011;73824;40.292;17.998;2024-02-26T07:55:07;8.93;;;1.40;;
83807;SDS011;73824;40.292;17.998;2024-02-26T07:57:33;9.98;;;1.38;;
83807;SDS011;73824;40.292;17.998;2024-02-26T07:59:59;6.50;;;1.20;;
83807;SDS011;73824;40.292;17.998;2024-02-26T08:02:25;7.72;;;1.10;;
83807;SDS011;73824;40.292;17.998;2024-02-26T08:04:50;5.53;;;1.20;;
83807;SDS011;73824;40.292;17.998;2024-02-26T08:07:16;7.68;;;1.45;;
83807;SDS011;73824;40.292;17.998;2024-02-26T08:09:42;6.07;;;1.23;;
83807;SDS011;73824;40.292;17.998;2024-02-26T08:12:07;7.72;;;1.50;;
83807;SDS011;73824;40.292;17.998;2024-02-26T08:14:36;6.03;;;1.30;;
83807;SDS011;73824;40.292;17.998;2024-02-26T08:17:01;7.28;;;1.48;;
83807;SDS011;73824;40.292;17.998;2024-02-26T08:19:27;6.60;;;1.53;;
83807;SDS011;73824;40.292;17.998;2024-02-26T08:21:52;7.90;;;1.40;;
83807;SDS011;73824;40.292;17.998;2024-02-26T08:24:18;6.78;;;1.60;;
83807;SDS011;73824;40.292;17.998;2024-02-26T08:26:44;9.13;;;1.50;;
83807;SDS011;73824;40.292;17.998;2024-02-26T08:29:09;6.22;;;1.30;;
83807;SDS011;73824;40.292;17.998;2024-02-26T08:31:35;7.97;;;1.43;;
83807;SDS011;73824;40.292;17.998;2024-02-26T08:34:02;5.80;;;1.92;;
83807;SDS011;73824;40.292;17.998;2024-02-26T08:36:29;7.63;;;1.38;;
83807;SDS011;73824;40.292;17.998;2024-02-26T08:38:58;9.52;;;3.25;;
83807;SDS011;73824;40.292;17.998;2024-02-26T08:41:24;8.77;;;2.77;;
83807;SDS011;73824;40.292;17.998;2024-02-26T08:43:49;8.50;;;1.60;;
83807;SDS011;73824;40.292;17.998;2024-02-26T08:46:15;9.88;;;1.80;;
83807;SDS011;73824;40.292;17.998;2024-02-26T08:48:40;9.05;;;2.28;;
83807;SDS011;73824;40.292;17.998;2024-02-26T08:51:06;10.67;;;2.27;;
83807;SDS011;73824;40.292;17.998;2024-02-26T08:53:32;6.68;;;1.70;;
83807;SDS011;73824;40.292;17.998;2024-02-26T08:55:58;6.00;;;1.60;;
83807;SDS011;73824;40.292;17.998;2024-02-26T08:58:23;6.43;;;1.60;;
83807;SDS011;73824;40.292;17.998;2024-02-26T09:00:49;7.97;;;2.57;;
83807;SDS011;73824;40.292;17.998;2024-02-26T09:03:15;7.55;;;1.75;;
83807;SDS011;73824;40.292;17.998;2024-02-26T09:05:40;5.70;;;1.40;;
83807;SDS011;73824;40.292;17.998;2024-02-26T09:08:06;7.80;;;1.80;;
83807;SDS011;73824;40.292;17.998;2024-02-26T09:10:32;10.00;;;1.83;;
83807;SDS011;73824;40.292;17.998;2024-02-26T09:12:58;8.05;;;1.90;;
83807;SDS011;73824;40.292;17.998;2024-02-26T09:15:23;7.43;;;1.87;;
83807;SDS011;73824;40.292;17.998;2024-02-26T09:17:49;6.47;;;1.77;;
83807;SDS011;73824;40.292;17.998;2024-02-26T09:20:15;10.35;;;1.95;;
83807;SDS011;73824;40.292;17.998;2024-02-26T09:22:45;9.38;;;2.45;;
83807;SDS011;73824;40.292;17.998;2024-02-26T09:25:11;6.35;;;1.83;;
83807;SDS011;73824;40.292;17.998;2024-02-26T09:27:41;6.35;;;1.80;;
83807;SDS011;73824;40.292;17.998;2024-02-26T09:30:10;7.50;;;2.08;;
83807;SDS011;73824;40.292;17.998;2024-02-26T09:32:37;8.38;;;1.40;;
83807;SDS011;73824;40.292;17.998;2024-02-26T09:35:02;7.82;;;2.58;;
83807;SDS011;73824;40.292;17.998;2024-02-26T09:37:28;5.55;;;1.40;;
83807;SDS011;73824;40.292;17.998;2024-02-26T09:39:53;6.40;;;2.23;;
83807;SDS011;73824;40.292;17.998;2024-02-26T09:42:19;7.30;;;2.40;;
83807;SDS011;73824;40.292;17.998;2024-02-26T09:44:45;5.22;;;1.65;;
83807;SDS011;73824;40.292;17.998;2024-02-26T09:47:14;6.38;;;1.20;;
83807;SDS011;73824;40.292;17.998;2024-02-26T09:49:42;6.57;;;1.25;;
83807;SDS011;73824;40.292;17.998;2024-02-26T09:52:08;6.57;;;1.70;;
83807;SDS011;73824;40.292;17.998;2024-02-26T09:54:37;7.75;;;1.85;;
83807;SDS011;73824;40.292;17.998;2024-02-26T09:57:03;8.85;;;2.38;;
83807;SDS011;73824;40.292;17.998;2024-02-26T09:59:36;8.02;;;1.33;;
83807;SDS011;73824;40.292;17.998;2024-02-26T10:02:05;6.80;;;1.20;;
83807;SDS011;73824;40.292;17.998;2024-02-26T10:04:42;5.90;;;1.52;;
83807;SDS011;73824;40.292;17.998;2024-02-26T10:07:11;6.28;;;1.80;;
83807;SDS011;73824;40.292;17.998;2024-02-26T10:09:38;6.45;;;1.15;;
83807;SDS011;73824;40.292;17.998;2024-02-26T10:12:04;4.25;;;1.00;;
83807;SDS011;73824;40.292;17.998;2024-02-26T10:14:30;6.50;;;1.33;;
83807;SDS011;73824;40.292;17.998;2024-02-26T10:16:56;7.30;;;1.52;;
83807;SDS011;73824;40.292;17.998;2024-02-26T10:19:25;7.07;;;1.58;;
83807;SDS011;73824;40.292;17.998;2024-02-26T10:21:58;9.43;;;1.80;;
83807;SDS011;73824;40.292;17.998;2024-02-26T10:24:25;6.07;;;1.00;;
83807;SDS011;73824;40.292;17.998;2024-02-26T10:26:51;6.53;;;1.60;;
83807;SDS011;73824;40.292;17.998;2024-02-26T10:29:18;6.65;;;1.23;;
83807;SDS011;73824;40.292;17.998;2024-02-26T10:31:45;5.65;;;1.00;;
83807;SDS011;73824;40.292;17.998;2024-02-26T10:34:10;6.43;;;1.23;;
83807;SDS011;73824;40.292;17.998;2024-02-26T10:36:36;7.53;;;1.50;;
83807;SDS011;73824;40.292;17.998;2024-02-26T10:39:03;5.30;;;0.82;;
83807;SDS011;73824;40.292;17.998;2024-02-26T10:41:30;9.07;;;1.02;;
83807;SDS011;73824;40.292;17.998;2024-02-26T10:43:57;10.90;;;1.50;;
83807;SDS011;73824;40.292;17.998;2024-02-26T10:46:23;9.13;;;1.67;;
83807;SDS011;73824;40.292;17.998;2024-02-26T10:48:50;8.15;;;2.60;;
83807;SDS011;73824;40.292;17.998;2024-02-26T10:51:17;7.07;;;1.70;;
83807;SDS011;73824;40.292;17.998;2024-02-26T10:53:47;6.22;;;1.70;;
83807;SDS011;73824;40.292;17.998;2024-02-26T10:56:18;6.93;;;1.50;;
83807;SDS011;73824;40.292;17.998;2024-02-26T10:58:45;5.53;;;1.23;;
83807;SDS011;73824;40.292;17.998;2024-02-26T11:01:12;5.35;;;1.30;;
83807;SDS011;73824;40.292;17.998;2024-02-26T11:03:38;6.53;;;1.97;;
83807;SDS011;73824;40.292;17.998;2024-02-26T11:06:05;7.93;;;2.88;;
83807;SDS011;73824;40.292;17.998;2024-02-26T11:08:31;6.10;;;1.70;;
83807;SDS011;73824;40.292;17.998;2024-02-26T11:10:57;6.95;;;1.70;;
83807;SDS011;73824;40.292;17.998;2024-02-26T11:13:23;8.50;;;1.80;;
83807;SDS011;73824;40.292;17.998;2024-02-26T11:15:55;8.23;;;1.98;;
83807;SDS011;73824;40.292;17.998;2024-02-26T11:18:22;6.00;;;1.20;;
83807;SDS011;73824;40.292;17.998;2024-02-26T11:20:49;6.85;;;1.48;;
83807;SDS011;73824;40.292;17.998;2024-02-26T11:23:16;7.27;;;1.73;;
83807;SDS011;73824;40.292;17.998;2024-02-26T11:25:41;7.82;;;2.25;;
83807;SDS011;73824;40.292;17.998;2024-02-26T11:28:16;9.07;;;1.40;;
83807;SDS011;73824;40.292;17.998;2024-02-26T11:30:45;9.82;;;2.35;;
83807;SDS011;73824;40.292;17.998;2024-02-26T11:33:13;7.53;;;2.30;;
83807;SDS011;73824;40.292;17.998;2024-02-26T11:35:40;7.95;;;2.17;;
83807;SDS011;73824;40.292;17.998;2024-02-26T11:38:06;6.07;;;1.00;;
83807;SDS011;73824;40.292;17.998;2024-02-26T11:40:32;7.55;;;1.50;;
83807;SDS011;73824;40.292;17.998;2024-02-26T11:43:03;9.82;;;1.35;;
83807;SDS011;73824;40.292;17.998;2024-02-26T11:48:15;12.38;;;1.40;;
83807;SDS011;73824;40.292;17.998;2024-02-26T11:50:45;8.27;;;1.15;;
83807;SDS011;73824;40.292;17.998;2024-02-26T11:56:20;5.43;;;1.20;;
83807;SDS011;73824;40.292;17.998;2024-02-26T11:58:58;6.07;;;1.35;;
83807;SDS011;73824;40.292;17.998;2024-02-26T12:01:37;5.63;;;1.10;;
83807;SDS011;73824;40.292;17.998;2024-02-26T12:04:18;6.47;;;1.10;;
83807;SDS011;73824;40.292;17.998;2024-02-26T12:06:47;7.90;;;1.30;;
83807;SDS011;73824;40.292;17.998;2024-02-26T12:09:30;11.70;;;1.30;;
83807;SDS011;73824;40.292;17.998;2024-02-26T12:12:06;6.07;;;1.40;;
83807;SDS011;73824;40.292;17.998;2024-02-26T12:14:38;7.32;;;1.60;;
83807;SDS011;73824;40.292;17.998;2024-02-26T12:17:06;5.60;;;1.58;;
83807;SDS011;73824;40.292;17.998;2024-02-26T12:19:34;5.22;;;1.25;;
83807;SDS011;73824;40.292;17.998;2024-02-26T12:22:00;8.10;;;1.40;;
83807;SDS011;73824;40.292;17.998;2024-02-26T12:24:26;8.50;;;2.37;;
83807;SDS011;73824;40.292;17.998;2024-02-26T12:26:52;7.23;;;1.90;;
83807;SDS011;73824;40.292;17.998;2024-02-26T12:29:17;9.20;;;2.53;;
83807;SDS011;73824;40.292;17.998;2024-02-26T12:31:43;7.93;;;1.47;;
83807;SDS011;73824;40.292;17.998;2024-02-26T12:34:09;8.13;;;1.90;;
83807;SDS011;73824;40.292;17.998;2024-02-26T12:36:35;10.93;;;3.93;;
83807;SDS011;73824;40.292;17.998;2024-02-26T12:39:01;7.57;;;2.45;;
83807;SDS011;73824;40.292;17.998;2024-02-26T12:41:28;12.68;;;2.83;;
83807;SDS011;73824;40.292;17.998;2024-02-26T12:43:55;9.55;;;2.00;;
83807;SDS011;73824;40.292;17.998;2024-02-26T12:46:21;7.30;;;1.50;;
83807;SDS011;73824;40.292;17.998;2024-02-26T12:48:47;10.00;;;2.50;;
83807;SDS011;73824;40.292;17.998;2024-02-26T12:51:13;7.93;;;1.63;;
83807;SDS011;73824;40.292;17.998;2024-02-26T12:53:41;7.68;;;2.38;;
83807;SDS011;73824;40.292;17.998;2024-02-26T12:56:09;8.85;;;1.80;;
83807;SDS011;73824;40.292;17.998;2024-02-26T12:58:38;19.80;;;3.35;;
83807;SDS011;73824;40.292;17.998;2024-02-26T13:01:04;6.80;;;2.13;;
83807;SDS011;73824;40.292;17.998;2024-02-26T13:03:31;6.03;;;1.42;;
83807;SDS011;73824;40.292;17.998;2024-02-26T13:05:58;14.80;;;5.63;;
83807;SDS011;73824;40.292;17.998;2024-02-26T13:08:24;8.45;;;2.08;;
83807;SDS011;73824;40.292;17.998;2024-02-26T13:10:49;9.33;;;1.83;;
83807;SDS011;73824;40.292;17.998;2024-02-26T13:13:17;6.70;;;1.55;;
83807;SDS011;73824;40.292;17.998;2024-02-26T13:15:43;9.27;;;2.95;;
83807;SDS011;73824;40.292;17.998;2024-02-26T13:18:13;8.37;;;1.47;;
83807;SDS011;73824;40.292;17.998;2024-02-26T13:20:39;7.07;;;2.00;;
83807;SDS011;73824;40.292;17.998;2024-02-26T13:23:12;6.45;;;1.55;;
83807;SDS011;73824;40.292;17.998;2024-02-26T13:25:38;8.93;;;2.13;;
83807;SDS011;73824;40.292;17.998;2024-02-26T13:28:12;7.00;;;2.08;;
83807;SDS011;73824;40.292;17.998;2024-02-26T13:30:41;5.43;;;1.10;;
83807;SDS011;73824;40.292;17.998;2024-02-26T13:33:12;6.25;;;1.20;;
83807;SDS011;73824;40.292;17.998;2024-02-26T13:35:38;8.40;;;2.20;;
83807;SDS011;73824;40.292;17.998;2024-02-26T13:38:05;5.13;;;1.40;;
83807;SDS011;73824;40.292;17.998;2024-02-26T13:40:34;6.07;;;1.10;;
83807;SDS011;73824;40.292;17.998;2024-02-26T13:43:00;6.20;;;1.58;;
83807;SDS011;73824;40.292;17.998;2024-02-26T13:45:25;5.72;;;1.63;;
83807;SDS011;73824;40.292;17.998;2024-02-26T13:47:51;7.40;;;1.40;;
83807;SDS011;73824;40.292;17.998;2024-02-26T13:50:17;7.40;;;1.40;;
83807;SDS011;73824;40.292;17.998;2024-02-26T13:52:46;8.15;;;2.10;;
83807;SDS011;73824;40.292;17.998;2024-02-26T13:55:12;7.57;;;2.33;;
83807;SDS011;73824;40.292;17.998;2024-02-26T13:57:39;8.45;;;1.80;;
83807;SDS011;73824;40.292;17.998;2024-02-26T14:00:05;5.38;;;1.35;;
83807;SDS011;73824;40.292;17.998;2024-02-26T14:02:32;10.88;;;1.75;;
83807;SDS011;73824;40.292;17.998;2024-02-26T14:05:01;7.35;;;1.33;;
83807;SDS011;73824;40.292;17.998;2024-02-26T14:07:28;5.13;;;1.10;;
83807;SDS011;73824;40.292;17.998;2024-02-26T14:09:55;6.20;;;1.80;;
83807;SDS011;73824;40.292;17.998;2024-02-26T14:12:20;5.70;;;1.47;;
83807;SDS011;73824;40.292;17.998;2024-02-26T14:14:46;6.27;;;1.30;;
83807;SDS011;73824;40.292;17.998;2024-02-26T14:17:13;8.63;;;1.40;;
83807;SDS011;73824;40.292;17.998;2024-02-26T14:19:41;14.05;;;2.28;;
83807;SDS011;73824;40.292;17.998;2024-02-26T14:22:12;10.45;;;2.63;;
83807;SDS011;73824;40.292;17.998;2024-02-26T14:24:38;7.43;;;1.50;;
83807;SDS011;73824;40.292;17.998;2024-02-26T14:27:10;7.05;;;1.85;;
83807;SDS011;73824;40.292;17.998;2024-02-26T14:29:40;12.20;;;2.50;;
83807;SDS011;73824;40.292;17.998;2024-02-26T14:32:08;11.32;;;1.90;;